sensor_id;sensor_type;location;lat;lon;timestamp;temperature;humidity
5276;DHT22;2661;50.786;12.728;2022-10-16T00:02:13;13.90;99.90
5276;DHT22;2661;50.786;12.728;2022-10-16T00:04:40;14.00;99.90
5276;DHT22;2661;50.786;12.728;2022-10-16T00:07:06;14.00;99.90
5276;DHT22;2661;50.786;12.728;2022-10-16T00:09:33;14.10;1.00
5276;DHT22;2661;50.786;12.728;2022-10-16T00:11:59;14.10;1.00
5276;DHT22;2661;50.786;12.728;2022-10-16T00:14:26;14.20;1.00
5276;DHT22;2661;50.786;12.728;2022-10-16T00:16:53;14.20;99.90
5276;DHT22;2661;50.786;12.728;2022-10-16T00:19:19;14.30;99.90
5276;DHT22;2661;50.786;12.728;2022-10-16T00:21:46;14.30;99.90
5276;DHT22;2661;50.786;12.728;2022-10-16T00:24:12;14.30;1.00
5276;DHT22;2661;50.786;12.728;2022-10-16T00:26:39;14.40;1.00
5276;DHT22;2661;50.786;12.728;2022-10-16T00:29:06;14.40;1.00
5276;DHT22;2661;50.786;12.728;2022-10-16T00:31:33;14.40;1.00
5276;DHT22;2661;50.786;12.728;2022-10-16T00:33:59;14.40;1.00
5276;DHT22;2661;50.786;12.728;2022-10-16T00:36:26;14.40;1.00
5276;DHT22;2661;50.786;12.728;2022-10-16T00:38:54;14.40;1.00
5276;DHT22;2661;50.786;12.728;2022-10-16T00:41:22;14.40;1.00
5276;DHT22;2661;50.786;12.728;2022-10-16T00:43:50;14.40;1.00
5276;DHT22;2661;50.786;12.728;2022-10-16T00:46:18;14.40;1.00
5276;DHT22;2661;50.786;12.728;2022-10-16T00:48:48;14.40;1.00
5276;DHT22;2661;50.786;12.728;2022-10-16T00:51:16;14.40;1.00
5276;DHT22;2661;50.786;12.728;2022-10-16T00:53:44;14.50;1.00
5276;DHT22;2661;50.786;12.728;2022-10-16T00:56:11;14.50;1.00
5276;DHT22;2661;50.786;12.728;2022-10-16T00:58:37;14.50;1.00
5276;DHT22;2661;50.786;12.728;2022-10-16T01:01:04;14.50;1.00
5276;DHT22;2661;50.786;12.728;2022-10-16T01:03:32;14.50;1.00
5276;DHT22;2661;50.786;12.728;2022-10-16T01:08:51;14.40;1.00
5276;DHT22;2661;50.786;12.728;2022-10-16T01:11:24;14.50;1.00
5276;DHT22;2661;50.786;12.728;2022-10-16T01:13:54;14.50;1.00
5276;DHT22;2661;50.786;12.728;2022-10-16T01:16:25;14.60;1.00
5276;DHT22;2661;50.786;12.728;2022-10-16T01:18:54;14.60;1.00
5276;DHT22;2661;50.786;12.728;2022-10-16T01:21:27;14.60;99.90
5276;DHT22;2661;50.786;12.728;2022-10-16T01:24:03;14.60;99.90
5276;DHT22;2661;50.786;12.728;2022-10-16T01:26:37;14.70;99.90
5276;DHT22;2661;50.786;12.728;2022-10-16T01:29:21;14.70;99.90
5276;DHT22;2661;50.786;12.728;2022-10-16T01:31:54;14.70;98.60
5276;DHT22;2661;50.786;12.728;2022-10-16T01:34:25;14.70;71.70
5276;DHT22;2661;50.786;12.728;2022-10-16T01:36:56;14.60;1.00
5276;DHT22;2661;50.786;12.728;2022-10-16T01:39:24;14.60;5.40
5276;DHT22;2661;50.786;12.728;2022-10-16T01:41:54;14.50;12.10
5276;DHT22;2661;50.786;12.728;2022-10-16T01:44:25;14.40;49.80
5276;DHT22;2661;50.786;12.728;2022-10-16T01:46:53;14.30;99.90
5276;DHT22;2661;50.786;12.728;2022-10-16T01:49:21;14.30;99.90
5276;DHT22;2661;50.786;12.728;2022-10-16T01:51:48;14.40;99.90
5276;DHT22;2661;50.786;12.728;2022-10-16T01:54:16;14.30;99.90
5276;DHT22;2661;50.786;12.728;2022-10-16T01:56:45;14.30;99.90
5276;DHT22;2661;50.786;12.728;2022-10-16T01:59:12;14.20;99.90
5276;DHT22;2661;50.786;12.728;2022-10-16T02:01:40;14.20;99.90
5276;DHT22;2661;50.786;12.728;2022-10-16T02:04:15;14.20;1.00
5276;DHT22;2661;50.786;12.728;2022-10-16T02:06:43;14.20;1.00
5276;DHT22;2661;50.786;12.728;2022-10-16T02:09:10;14.20;1.00
5276;DHT22;2661;50.786;12.728;2022-10-16T02:11:36;14.20;1.00
5276;DHT22;2661;50.786;12.728;2022-10-16T02:14:04;14.20;1.00
5276;DHT22;2661;50.786;12.728;2022-10-16T02:16:35;14.20;1.00
5276;DHT22;2661;50.786;12.728;2022-10-16T02:19:03;14.20;1.00
5276;DHT22;2661;50.786;12.728;2022-10-16T02:21:33;14.20;1.00
5276;DHT22;2661;50.786;12.728;2022-10-16T02:26:41;14.10;1.00
5276;DHT22;2661;50.786;12.728;2022-10-16T02:29:10;14.20;1.00
5276;DHT22;2661;50.786;12.728;2022-10-16T02:31:39;14.10;1.00
5276;DHT22;2661;50.786;12.728;2022-10-16T02:34:07;14.20;1.00
5276;DHT22;2661;50.786;12.728;2022-10-16T02:36:34;14.20;1.00
5276;DHT22;2661;50.786;12.728;2022-10-16T02:39:02;14.20;1.00
5276;DHT22;2661;50.786;12.728;2022-10-16T02:41:31;14.20;1.00
5276;DHT22;2661;50.786;12.728;2022-10-16T02:43:57;14.20;1.00
5276;DHT22;2661;50.786;12.728;2022-10-16T02:46:24;14.20;1.00
5276;DHT22;2661;50.786;12.728;2022-10-16T02:48:51;14.20;1.00
5276;DHT22;2661;50.786;12.728;2022-10-16T02:51:17;14.10;1.00
5276;DHT22;2661;50.786;12.728;2022-10-16T02:53:44;14.10;1.00
5276;DHT22;2661;50.786;12.728;2022-10-16T02:56:11;14.10;1.00
5276;DHT22;2661;50.786;12.728;2022-10-16T02:58:37;14.00;1.00
5276;DHT22;2661;50.786;12.728;2022-10-16T03:01:04;14.20;13.40
5276;DHT22;2661;50.786;12.728;2022-10-16T03:03:30;14.20;1.00
5276;DHT22;2661;50.786;12.728;2022-10-16T03:05:57;14.20;99.90
5276;DHT22;2661;50.786;12.728;2022-10-16T03:08:24;14.20;1.00
5276;DHT22;2661;50.786;12.728;2022-10-16T03:10:51;14.10;1.00
5276;DHT22;2661;50.786;12.728;2022-10-16T03:13:18;14.10;1.00
5276;DHT22;2661;50.786;12.728;2022-10-16T03:15:46;14.10;1.00
5276;DHT22;2661;50.786;12.728;2022-10-16T03:18:13;14.10;1.00
5276;DHT22;2661;50.786;12.728;2022-10-16T03:20:40;14.20;1.00
5276;DHT22;2661;50.786;12.728;2022-10-16T03:23:06;14.20;1.00
5276;DHT22;2661;50.786;12.728;2022-10-16T03:25:34;14.20;1.00
5276;DHT22;2661;50.786;12.728;2022-10-16T03:28:01;14.20;1.00
5276;DHT22;2661;50.786;12.728;2022-10-16T03:30:27;14.20;1.00
5276;DHT22;2661;50.786;12.728;2022-10-16T03:32:54;14.10;1.00
5276;DHT22;2661;50.786;12.728;2022-10-16T03:35:21;14.10;1.00
5276;DHT22;2661;50.786;12.728;2022-10-16T03:37:48;14.10;1.00
5276;DHT22;2661;50.786;12.728;2022-10-16T03:40:14;14.10;1.00
5276;DHT22;2661;50.786;12.728;2022-10-16T03:42:44;14.10;1.00
5276;DHT22;2661;50.786;12.728;2022-10-16T03:45:11;14.10;1.00
5276;DHT22;2661;50.786;12.728;2022-10-16T03:47:37;14.20;1.00
5276;DHT22;2661;50.786;12.728;2022-10-16T03:50:04;14.20;1.00
5276;DHT22;2661;50.786;12.728;2022-10-16T03:52:31;14.20;1.00
5276;DHT22;2661;50.786;12.728;2022-10-16T03:54:58;14.10;1.00
5276;DHT22;2661;50.786;12.728;2022-10-16T03:57:25;14.20;1.00
5276;DHT22;2661;50.786;12.728;2022-10-16T03:59:51;14.20;1.00
5276;DHT22;2661;50.786;12.728;2022-10-16T04:02:18;14.20;1.00
5276;DHT22;2661;50.786;12.728;2022-10-16T04:04:45;14.10;1.00
5276;DHT22;2661;50.786;12.728;2022-10-16T04:07:11;14.10;1.00
5276;DHT22;2661;50.786;12.728;2022-10-16T04:09:38;14.10;1.00
5276;DHT22;2661;50.786;12.728;2022-10-16T04:12:04;14.10;1.00
5276;DHT22;2661;50.786;12.728;2022-10-16T04:14:31;14.10;1.00
5276;DHT22;2661;50.786;12.728;2022-10-16T04:16:57;14.10;1.00
5276;DHT22;2661;50.786;12.728;2022-10-16T04:19:24;14.10;1.00
5276;DHT22;2661;50.786;12.728;2022-10-16T04:21:50;14.10;1.00
5276;DHT22;2661;50.786;12.728;2022-10-16T04:24:17;14.20;1.00
5276;DHT22;2661;50.786;12.728;2022-10-16T04:26:44;14.20;1.00
5276;DHT22;2661;50.786;12.728;2022-10-16T04:29:10;14.20;99.90
5276;DHT22;2661;50.786;12.728;2022-10-16T04:31:37;14.20;99.90
5276;DHT22;2661;50.786;12.728;2022-10-16T04:34:03;14.20;99.90
5276;DHT22;2661;50.786;12.728;2022-10-16T04:36:30;14.10;99.90
5276;DHT22;2661;50.786;12.728;2022-10-16T04:38:57;14.10;99.90
5276;DHT22;2661;50.786;12.728;2022-10-16T04:41:23;14.10;1.00
5276;DHT22;2661;50.786;12.728;2022-10-16T04:43:50;14.00;1.00
5276;DHT22;2661;50.786;12.728;2022-10-16T04:46:16;14.00;1.00
5276;DHT22;2661;50.786;12.728;2022-10-16T04:48:43;14.00;13.10
5276;DHT22;2661;50.786;12.728;2022-10-16T04:51:09;14.00;99.90
5276;DHT22;2661;50.786;12.728;2022-10-16T04:53:36;14.00;99.90
5276;DHT22;2661;50.786;12.728;2022-10-16T04:56:03;14.00;99.90
5276;DHT22;2661;50.786;12.728;2022-10-16T04:58:30;14.10;1.00
5276;DHT22;2661;50.786;12.728;2022-10-16T05:00:56;14.00;99.90
5276;DHT22;2661;50.786;12.728;2022-10-16T05:03:23;14.00;99.90
5276;DHT22;2661;50.786;12.728;2022-10-16T05:05:49;13.90;99.90
5276;DHT22;2661;50.786;12.728;2022-10-16T05:08:16;13.90;99.90
5276;DHT22;2661;50.786;12.728;2022-10-16T05:10:43;13.80;99.90
5276;DHT22;2661;50.786;12.728;2022-10-16T05:13:10;13.80;99.90
5276;DHT22;2661;50.786;12.728;2022-10-16T05:15:37;13.80;1.00
5276;DHT22;2661;50.786;12.728;2022-10-16T05:18:04;13.80;1.00
5276;DHT22;2661;50.786;12.728;2022-10-16T05:20:30;13.70;1.00
5276;DHT22;2661;50.786;12.728;2022-10-16T05:22:57;13.70;1.00
5276;DHT22;2661;50.786;12.728;2022-10-16T05:25:23;13.70;1.00
5276;DHT22;2661;50.786;12.728;2022-10-16T05:27:50;13.80;99.90
5276;DHT22;2661;50.786;12.728;2022-10-16T05:30:17;13.90;1.00
5276;DHT22;2661;50.786;12.728;2022-10-16T05:32:50;14.00;99.90
5276;DHT22;2661;50.786;12.728;2022-10-16T05:35:17;14.10;1.00
5276;DHT22;2661;50.786;12.728;2022-10-16T05:37:44;14.10;1.00
5276;DHT22;2661;50.786;12.728;2022-10-16T05:40:11;14.10;1.00
5276;DHT22;2661;50.786;12.728;2022-10-16T05:42:39;14.30;99.90
5276;DHT22;2661;50.786;12.728;2022-10-16T05:45:06;14.30;1.00
5276;DHT22;2661;50.786;12.728;2022-10-16T05:47:33;14.20;3.70
5276;DHT22;2661;50.786;12.728;2022-10-16T05:50:00;14.20;1.00
5276;DHT22;2661;50.786;12.728;2022-10-16T05:52:27;14.20;1.00
5276;DHT22;2661;50.786;12.728;2022-10-16T05:54:53;14.20;29.10
5276;DHT22;2661;50.786;12.728;2022-10-16T05:57:20;14.20;41.80
5276;DHT22;2661;50.786;12.728;2022-10-16T05:59:47;14.20;70.10
5276;DHT22;2661;50.786;12.728;2022-10-16T06:02:13;14.20;41.30
5276;DHT22;2661;50.786;12.728;2022-10-16T06:04:40;14.20;99.90
5276;DHT22;2661;50.786;12.728;2022-10-16T06:07:07;14.20;99.90
5276;DHT22;2661;50.786;12.728;2022-10-16T06:09:33;14.30;99.90
5276;DHT22;2661;50.786;12.728;2022-10-16T06:12:00;14.20;99.90
5276;DHT22;2661;50.786;12.728;2022-10-16T06:14:26;14.20;99.90
5276;DHT22;2661;50.786;12.728;2022-10-16T06:16:53;14.20;99.90
5276;DHT22;2661;50.786;12.728;2022-10-16T06:19:20;14.30;99.90
5276;DHT22;2661;50.786;12.728;2022-10-16T06:21:46;14.20;99.90
5276;DHT22;2661;50.786;12.728;2022-10-16T06:24:14;14.20;99.90
5276;DHT22;2661;50.786;12.728;2022-10-16T06:26:40;14.10;99.90
5276;DHT22;2661;50.786;12.728;2022-10-16T06:29:07;14.10;99.90
5276;DHT22;2661;50.786;12.728;2022-10-16T06:31:34;14.10;99.90
5276;DHT22;2661;50.786;12.728;2022-10-16T06:34:01;14.00;1.00
5276;DHT22;2661;50.786;12.728;2022-10-16T06:36:28;14.00;1.00
5276;DHT22;2661;50.786;12.728;2022-10-16T06:38:55;14.00;26.00
5276;DHT22;2661;50.786;12.728;2022-10-16T06:41:21;14.00;99.90
5276;DHT22;2661;50.786;12.728;2022-10-16T06:43:49;14.00;99.90
5276;DHT22;2661;50.786;12.728;2022-10-16T06:46:16;14.00;99.90
5276;DHT22;2661;50.786;12.728;2022-10-16T06:48:43;14.10;1.00
5276;DHT22;2661;50.786;12.728;2022-10-16T06:53:41;14.10;1.00
5276;DHT22;2661;50.786;12.728;2022-10-16T06:56:27;14.20;1.00
5276;DHT22;2661;50.786;12.728;2022-10-16T06:58:56;14.20;1.00
5276;DHT22;2661;50.786;12.728;2022-10-16T07:01:23;14.30;1.00
5276;DHT22;2661;50.786;12.728;2022-10-16T07:03:50;14.30;1.00
5276;DHT22;2661;50.786;12.728;2022-10-16T07:06:17;14.30;99.90
5276;DHT22;2661;50.786;12.728;2022-10-16T07:08:45;14.40;99.90
5276;DHT22;2661;50.786;12.728;2022-10-16T07:11:13;14.40;99.90
5276;DHT22;2661;50.786;12.728;2022-10-16T07:13:41;14.40;1.00
5276;DHT22;2661;50.786;12.728;2022-10-16T07:16:09;14.50;1.00
5276;DHT22;2661;50.786;12.728;2022-10-16T07:18:36;14.60;1.00
5276;DHT22;2661;50.786;12.728;2022-10-16T07:21:04;14.70;1.00
5276;DHT22;2661;50.786;12.728;2022-10-16T07:23:31;14.80;1.00
5276;DHT22;2661;50.786;12.728;2022-10-16T07:25:57;14.80;99.90
5276;DHT22;2661;50.786;12.728;2022-10-16T07:28:24;14.90;1.00
5276;DHT22;2661;50.786;12.728;2022-10-16T07:30:51;15.00;1.00
5276;DHT22;2661;50.786;12.728;2022-10-16T07:33:17;15.00;99.90
5276;DHT22;2661;50.786;12.728;2022-10-16T07:35:48;15.10;99.90
5276;DHT22;2661;50.786;12.728;2022-10-16T07:38:14;15.10;99.90
5276;DHT22;2661;50.786;12.728;2022-10-16T07:40:41;15.10;99.90
5276;DHT22;2661;50.786;12.728;2022-10-16T07:43:07;15.20;99.90
5276;DHT22;2661;50.786;12.728;2022-10-16T07:45:34;15.20;99.90
5276;DHT22;2661;50.786;12.728;2022-10-16T07:48:01;15.30;99.90
5276;DHT22;2661;50.786;12.728;2022-10-16T07:50:27;15.40;91.60
5276;DHT22;2661;50.786;12.728;2022-10-16T07:52:54;15.50;40.20
5276;DHT22;2661;50.786;12.728;2022-10-16T07:55:20;15.60;1.00
5276;DHT22;2661;50.786;12.728;2022-10-16T07:57:47;15.60;1.00
5276;DHT22;2661;50.786;12.728;2022-10-16T08:00:14;15.70;1.00
5276;DHT22;2661;50.786;12.728;2022-10-16T08:02:40;15.80;1.00
5276;DHT22;2661;50.786;12.728;2022-10-16T08:05:07;15.90;1.00
5276;DHT22;2661;50.786;12.728;2022-10-16T08:07:34;16.10;1.00
5276;DHT22;2661;50.786;12.728;2022-10-16T08:10:00;16.20;99.90
5276;DHT22;2661;50.786;12.728;2022-10-16T08:12:27;16.30;99.90
5276;DHT22;2661;50.786;12.728;2022-10-16T08:14:53;16.30;99.90
5276;DHT22;2661;50.786;12.728;2022-10-16T08:17:20;16.30;99.90
5276;DHT22;2661;50.786;12.728;2022-10-16T08:19:47;16.30;99.90
5276;DHT22;2661;50.786;12.728;2022-10-16T08:22:14;16.40;99.90
5276;DHT22;2661;50.786;12.728;2022-10-16T08:24:40;16.50;99.90
5276;DHT22;2661;50.786;12.728;2022-10-16T08:27:07;16.50;99.90
5276;DHT22;2661;50.786;12.728;2022-10-16T08:29:35;16.50;99.90
5276;DHT22;2661;50.786;12.728;2022-10-16T08:32:03;16.50;99.90
5276;DHT22;2661;50.786;12.728;2022-10-16T08:34:29;16.60;99.90
5276;DHT22;2661;50.786;12.728;2022-10-16T08:36:56;16.60;99.90
5276;DHT22;2661;50.786;12.728;2022-10-16T08:39:23;16.60;99.90
5276;DHT22;2661;50.786;12.728;2022-10-16T08:49:46;16.80;99.90
5276;DHT22;2661;50.786;12.728;2022-10-16T08:52:18;16.90;99.90
5276;DHT22;2661;50.786;12.728;2022-10-16T08:54:46;16.80;99.90
5276;DHT22;2661;50.786;12.728;2022-10-16T08:57:17;16.90;99.90
5276;DHT22;2661;50.786;12.728;2022-10-16T08:59:50;16.90;99.90
5276;DHT22;2661;50.786;12.728;2022-10-16T09:07:38;17.10;95.00
5276;DHT22;2661;50.786;12.728;2022-10-16T09:12:56;17.30;90.00
5276;DHT22;2661;50.786;12.728;2022-10-16T09:17:56;17.50;71.40
5276;DHT22;2661;50.786;12.728;2022-10-16T09:20:28;17.60;99.90
5276;DHT22;2661;50.786;12.728;2022-10-16T09:23:00;17.60;64.90
5276;DHT22;2661;50.786;12.728;2022-10-16T09:25:34;17.80;99.90
5276;DHT22;2661;50.786;12.728;2022-10-16T09:28:01;17.80;96.40
5276;DHT22;2661;50.786;12.728;2022-10-16T09:30:28;17.80;84.40
5276;DHT22;2661;50.786;12.728;2022-10-16T09:32:57;17.80;99.90
5276;DHT22;2661;50.786;12.728;2022-10-16T09:35:32;17.80;99.90
5276;DHT22;2661;50.786;12.728;2022-10-16T09:37:59;17.70;77.50
5276;DHT22;2661;50.786;12.728;2022-10-16T09:40:27;17.80;94.70
5276;DHT22;2661;50.786;12.728;2022-10-16T09:43:31;17.90;75.60
5276;DHT22;2661;50.786;12.728;2022-10-16T09:45:58;17.90;99.80
5276;DHT22;2661;50.786;12.728;2022-10-16T09:48:27;17.90;92.00
5276;DHT22;2661;50.786;12.728;2022-10-16T09:50:58;18.00;96.10
5276;DHT22;2661;50.786;12.728;2022-10-16T09:53:44;17.90;98.80
5276;DHT22;2661;50.786;12.728;2022-10-16T09:56:12;17.90;99.90
5276;DHT22;2661;50.786;12.728;2022-10-16T09:58:53;17.90;99.90
5276;DHT22;2661;50.786;12.728;2022-10-16T10:01:21;17.90;99.90
5276;DHT22;2661;50.786;12.728;2022-10-16T10:03:48;17.90;96.10
5276;DHT22;2661;50.786;12.728;2022-10-16T10:06:17;18.00;99.90
5276;DHT22;2661;50.786;12.728;2022-10-16T10:09:00;18.00;99.90
5276;DHT22;2661;50.786;12.728;2022-10-16T10:14:26;18.20;83.70
5276;DHT22;2661;50.786;12.728;2022-10-16T10:16:52;18.30;73.80
5276;DHT22;2661;50.786;12.728;2022-10-16T10:19:27;18.40;92.70
5276;DHT22;2661;50.786;12.728;2022-10-16T10:21:58;18.40;99.90
5276;DHT22;2661;50.786;12.728;2022-10-16T10:24:24;18.50;59.70
5276;DHT22;2661;50.786;12.728;2022-10-16T10:29:30;18.40;99.90
5276;DHT22;2661;50.786;12.728;2022-10-16T10:32:12;18.40;95.20
5276;DHT22;2661;50.786;12.728;2022-10-16T10:39:55;18.40;64.10
5276;DHT22;2661;50.786;12.728;2022-10-16T10:42:28;18.40;99.00
5276;DHT22;2661;50.786;12.728;2022-10-16T10:45:16;18.40;87.20
5276;DHT22;2661;50.786;12.728;2022-10-16T10:55:43;18.50;99.90
5276;DHT22;2661;50.786;12.728;2022-10-16T10:58:25;18.60;93.70
5276;DHT22;2661;50.786;12.728;2022-10-16T11:01:06;18.60;67.60
5276;DHT22;2661;50.786;12.728;2022-10-16T11:06:18;18.70;65.50
5276;DHT22;2661;50.786;12.728;2022-10-16T11:08:52;18.70;67.60
5276;DHT22;2661;50.786;12.728;2022-10-16T11:11:30;18.70;87.50
5276;DHT22;2661;50.786;12.728;2022-10-16T11:14:03;18.80;76.30
5276;DHT22;2661;50.786;12.728;2022-10-16T11:16:37;18.80;99.90
5276;DHT22;2661;50.786;12.728;2022-10-16T11:19:12;18.90;59.10
5276;DHT22;2661;50.786;12.728;2022-10-16T11:21:45;18.90;56.30
5276;DHT22;2661;50.786;12.728;2022-10-16T11:27:35;19.00;72.90
5276;DHT22;2661;50.786;12.728;2022-10-16T11:30:04;19.00;88.30
5276;DHT22;2661;50.786;12.728;2022-10-16T11:32:32;19.00;84.80
5276;DHT22;2661;50.786;12.728;2022-10-16T11:35:02;19.00;98.60
5276;DHT22;2661;50.786;12.728;2022-10-16T11:37:32;19.00;99.90
5276;DHT22;2661;50.786;12.728;2022-10-16T11:40:03;19.00;99.50
5276;DHT22;2661;50.786;12.728;2022-10-16T11:42:33;19.10;67.40
5276;DHT22;2661;50.786;12.728;2022-10-16T11:45:02;19.10;93.40
5276;DHT22;2661;50.786;12.728;2022-10-16T11:47:35;19.10;77.80
5276;DHT22;2661;50.786;12.728;2022-10-16T11:50:39;19.30;77.20
5276;DHT22;2661;50.786;12.728;2022-10-16T11:55:52;19.40;99.90
5276;DHT22;2661;50.786;12.728;2022-10-16T11:58:24;19.40;99.90
5276;DHT22;2661;50.786;12.728;2022-10-16T12:00:56;19.40;99.90
5276;DHT22;2661;50.786;12.728;2022-10-16T12:03:30;19.30;99.90
5276;DHT22;2661;50.786;12.728;2022-10-16T12:08:30;19.40;73.30
5276;DHT22;2661;50.786;12.728;2022-10-16T12:11:19;19.50;89.70
5276;DHT22;2661;50.786;12.728;2022-10-16T12:13:46;19.50;89.20
5276;DHT22;2661;50.786;12.728;2022-10-16T12:18:42;19.60;98.50
5276;DHT22;2661;50.786;12.728;2022-10-16T12:21:09;19.60;75.90
5276;DHT22;2661;50.786;12.728;2022-10-16T12:23:37;19.60;99.90
5276;DHT22;2661;50.786;12.728;2022-10-16T12:26:04;19.70;61.50
5276;DHT22;2661;50.786;12.728;2022-10-16T12:28:32;19.70;63.30
5276;DHT22;2661;50.786;12.728;2022-10-16T12:31:00;19.80;94.00
5276;DHT22;2661;50.786;12.728;2022-10-16T12:33:31;19.80;91.30
5276;DHT22;2661;50.786;12.728;2022-10-16T12:35:59;19.70;99.90
5276;DHT22;2661;50.786;12.728;2022-10-16T12:38:31;19.70;58.50
5276;DHT22;2661;50.786;12.728;2022-10-16T12:41:05;19.70;99.90
5276;DHT22;2661;50.786;12.728;2022-10-16T12:43:36;19.70;99.90
5276;DHT22;2661;50.786;12.728;2022-10-16T12:48:37;19.70;99.90
5276;DHT22;2661;50.786;12.728;2022-10-16T13:06:33;19.40;82.80
5276;DHT22;2661;50.786;12.728;2022-10-16T13:19:40;19.10;81.20
5276;DHT22;2661;50.786;12.728;2022-10-16T13:22:20;19.10;59.90
5276;DHT22;2661;50.786;12.728;2022-10-16T13:25:02;19.10;88.50
5276;DHT22;2661;50.786;12.728;2022-10-16T13:30:12;19.10;84.00
5276;DHT22;2661;50.786;12.728;2022-10-16T13:32:43;19.10;69.30
5276;DHT22;2661;50.786;12.728;2022-10-16T13:35:24;19.00;99.90
5276;DHT22;2661;50.786;12.728;2022-10-16T13:38:02;19.00;99.90
5276;DHT22;2661;50.786;12.728;2022-10-16T13:40:28;18.90;99.90
5276;DHT22;2661;50.786;12.728;2022-10-16T13:42:55;19.00;97.10
5276;DHT22;2661;50.786;12.728;2022-10-16T13:45:23;19.00;99.90
5276;DHT22;2661;50.786;12.728;2022-10-16T13:48:04;19.00;99.90
5276;DHT22;2661;50.786;12.728;2022-10-16T13:50:31;19.00;97.60
5276;DHT22;2661;50.786;12.728;2022-10-16T13:53:05;19.00;99.90
5276;DHT22;2661;50.786;12.728;2022-10-16T13:55:31;19.00;99.90
5276;DHT22;2661;50.786;12.728;2022-10-16T13:58:06;18.90;99.90
5276;DHT22;2661;50.786;12.728;2022-10-16T14:00:33;18.90;84.10
5276;DHT22;2661;50.786;12.728;2022-10-16T14:03:02;18.80;67.80
5276;DHT22;2661;50.786;12.728;2022-10-16T14:05:29;18.70;99.90
5276;DHT22;2661;50.786;12.728;2022-10-16T14:07:56;18.70;96.80
5276;DHT22;2661;50.786;12.728;2022-10-16T14:10:30;18.60;90.80
5276;DHT22;2661;50.786;12.728;2022-10-16T14:13:01;18.50;54.20
5276;DHT22;2661;50.786;12.728;2022-10-16T14:15:29;18.50;99.90
5276;DHT22;2661;50.786;12.728;2022-10-16T14:17:56;18.50;99.90
5276;DHT22;2661;50.786;12.728;2022-10-16T14:20:27;18.40;99.90
5276;DHT22;2661;50.786;12.728;2022-10-16T14:23:02;18.40;99.90
5276;DHT22;2661;50.786;12.728;2022-10-16T14:25:29;18.50;99.90
5276;DHT22;2661;50.786;12.728;2022-10-16T14:27:58;18.60;99.90
5276;DHT22;2661;50.786;12.728;2022-10-16T14:30:35;18.60;99.90
5276;DHT22;2661;50.786;12.728;2022-10-16T14:33:03;18.50;99.90
5276;DHT22;2661;50.786;12.728;2022-10-16T14:35:35;18.40;99.90
5276;DHT22;2661;50.786;12.728;2022-10-16T14:38:03;18.40;86.00
5276;DHT22;2661;50.786;12.728;2022-10-16T14:40:31;18.30;99.90
5276;DHT22;2661;50.786;12.728;2022-10-16T14:42:58;18.20;99.90
5276;DHT22;2661;50.786;12.728;2022-10-16T14:45:27;18.10;99.90
5276;DHT22;2661;50.786;12.728;2022-10-16T14:47:58;17.90;93.80
5276;DHT22;2661;50.786;12.728;2022-10-16T14:50:25;17.80;99.90
5276;DHT22;2661;50.786;12.728;2022-10-16T14:52:51;17.80;99.90
5276;DHT22;2661;50.786;12.728;2022-10-16T14:55:18;17.70;99.90
5276;DHT22;2661;50.786;12.728;2022-10-16T14:57:45;17.70;99.90
5276;DHT22;2661;50.786;12.728;2022-10-16T15:00:17;17.60;99.90
5276;DHT22;2661;50.786;12.728;2022-10-16T15:03:19;17.70;95.10
5276;DHT22;2661;50.786;12.728;2022-10-16T15:05:46;17.70;99.90
5276;DHT22;2661;50.786;12.728;2022-10-16T15:08:13;17.70;99.90
5276;DHT22;2661;50.786;12.728;2022-10-16T15:10:41;17.60;99.90
5276;DHT22;2661;50.786;12.728;2022-10-16T15:13:10;17.60;77.30
5276;DHT22;2661;50.786;12.728;2022-10-16T15:15:44;17.50;76.00
5276;DHT22;2661;50.786;12.728;2022-10-16T15:18:12;17.40;82.10
5276;DHT22;2661;50.786;12.728;2022-10-16T15:20:41;17.40;98.80
5276;DHT22;2661;50.786;12.728;2022-10-16T15:23:13;17.30;84.10
5276;DHT22;2661;50.786;12.728;2022-10-16T15:25:44;17.30;88.50
5276;DHT22;2661;50.786;12.728;2022-10-16T15:28:11;17.20;97.90
5276;DHT22;2661;50.786;12.728;2022-10-16T15:30:38;17.20;88.40
5276;DHT22;2661;50.786;12.728;2022-10-16T15:33:08;17.10;83.00
5276;DHT22;2661;50.786;12.728;2022-10-16T15:35:37;17.20;92.60
5276;DHT22;2661;50.786;12.728;2022-10-16T15:38:03;17.10;93.80
5276;DHT22;2661;50.786;12.728;2022-10-16T15:40:30;17.10;94.10
5276;DHT22;2661;50.786;12.728;2022-10-16T15:42:57;17.00;99.00
5276;DHT22;2661;50.786;12.728;2022-10-16T15:45:23;17.00;93.10
5276;DHT22;2661;50.786;12.728;2022-10-16T15:47:50;16.90;99.90
5276;DHT22;2661;50.786;12.728;2022-10-16T15:50:17;16.90;99.90
5276;DHT22;2661;50.786;12.728;2022-10-16T15:52:43;16.90;99.90
5276;DHT22;2661;50.786;12.728;2022-10-16T15:55:11;16.90;99.90
5276;DHT22;2661;50.786;12.728;2022-10-16T15:57:38;16.80;99.90
5276;DHT22;2661;50.786;12.728;2022-10-16T16:00:07;16.80;99.90
5276;DHT22;2661;50.786;12.728;2022-10-16T16:02:36;16.70;99.90
5276;DHT22;2661;50.786;12.728;2022-10-16T16:05:03;16.50;99.90
5276;DHT22;2661;50.786;12.728;2022-10-16T16:07:34;16.50;99.90
5276;DHT22;2661;50.786;12.728;2022-10-16T16:10:00;16.40;99.90
5276;DHT22;2661;50.786;12.728;2022-10-16T16:12:27;16.30;99.90
5276;DHT22;2661;50.786;12.728;2022-10-16T16:14:55;16.20;99.90
5276;DHT22;2661;50.786;12.728;2022-10-16T16:17:22;16.20;99.90
5276;DHT22;2661;50.786;12.728;2022-10-16T16:19:48;16.20;99.90
5276;DHT22;2661;50.786;12.728;2022-10-16T16:22:15;16.10;99.90
5276;DHT22;2661;50.786;12.728;2022-10-16T16:24:42;16.10;99.90
5276;DHT22;2661;50.786;12.728;2022-10-16T16:27:08;16.00;99.90
5276;DHT22;2661;50.786;12.728;2022-10-16T16:29:35;16.00;99.90
5276;DHT22;2661;50.786;12.728;2022-10-16T16:32:02;15.90;99.90
5276;DHT22;2661;50.786;12.728;2022-10-16T16:34:29;15.80;99.90
5276;DHT22;2661;50.786;12.728;2022-10-16T16:36:56;15.70;99.90
5276;DHT22;2661;50.786;12.728;2022-10-16T16:39:22;15.60;99.90
5276;DHT22;2661;50.786;12.728;2022-10-16T16:41:49;15.50;99.90
5276;DHT22;2661;50.786;12.728;2022-10-16T16:44:16;15.40;99.90
5276;DHT22;2661;50.786;12.728;2022-10-16T16:46:43;15.30;99.90
5276;DHT22;2661;50.786;12.728;2022-10-16T16:49:11;15.20;1.00
5276;DHT22;2661;50.786;12.728;2022-10-16T16:51:38;15.10;1.00
5276;DHT22;2661;50.786;12.728;2022-10-16T16:54:06;15.10;1.00
5276;DHT22;2661;50.786;12.728;2022-10-16T16:56:34;15.10;1.00
5276;DHT22;2661;50.786;12.728;2022-10-16T16:59:01;15.00;1.00
5276;DHT22;2661;50.786;12.728;2022-10-16T17:01:28;15.00;1.00
5276;DHT22;2661;50.786;12.728;2022-10-16T17:03:55;15.00;1.00
5276;DHT22;2661;50.786;12.728;2022-10-16T17:06:25;14.90;77.50
5276;DHT22;2661;50.786;12.728;2022-10-16T17:08:52;14.90;99.90
5276;DHT22;2661;50.786;12.728;2022-10-16T17:11:20;14.90;99.90
5276;DHT22;2661;50.786;12.728;2022-10-16T17:13:48;14.90;1.00
5276;DHT22;2661;50.786;12.728;2022-10-16T17:16:22;14.80;1.00
5276;DHT22;2661;50.786;12.728;2022-10-16T17:18:48;14.80;1.00
5276;DHT22;2661;50.786;12.728;2022-10-16T17:21:15;14.70;1.00
5276;DHT22;2661;50.786;12.728;2022-10-16T17:23:42;14.70;1.00
5276;DHT22;2661;50.786;12.728;2022-10-16T17:26:15;14.60;99.90
5276;DHT22;2661;50.786;12.728;2022-10-16T17:28:42;14.60;1.00
5276;DHT22;2661;50.786;12.728;2022-10-16T17:31:16;14.50;1.00
5276;DHT22;2661;50.786;12.728;2022-10-16T17:33:43;14.50;1.00